LFRS/NTE METAR and TAF weather

Enter ICAO airport designator
Station Type Date Time Source
LFRS METAR 2020/07/04 02:00 UTC NOAA

LFRS 040200Z AUTO 21006KT 9999 BKN027 14/12 Q1022 NOSIG


Station Type Date Time Source
LFRS Decoded METAR 2020/07/04 02:00 UTC NOAA

Nantes, France (LFRS) 47-10N 001-36W 27M
Jul 03, 2020 - 10:00 PM EDT / 2020.07.04 0200 UTC
Wind: from the SSW (210 degrees) at 7 MPH (6 KT):0
Visibility: greater than 7 mile(s):0
Sky conditions: mostly cloudy
Temperature: 57 F (14 C)
Dew Point: 53 F (12 C)
Relative Humidity: 87%
Pressure (altimeter): 30.18 in. Hg (1022 hPa)
ob: LFRS 040200Z AUTO 21006KT 9999 BKN027 14/12 Q1022 NOSIG
cycle: 2

Station Type Date Time Source
LFRS TAF 2020/07/03 18:47 UTC NOAA

TAF LFRS 031700Z 0318/0424 26012KT CAVOK
BECMG 0321/0324 20004KT
FM040700 23012KT 9999 BKN020
BECMG 0408/0410 BKN014 OVC020
TEMPO 0410/0415 SCT015 BKN025
BECMG 0415/0418 BKN007 OVC015 PROB30
TEMPO 0415/0418 4000 -RADZ
TEMPO 0418/0424 2000 DZRA BKN003 OVC009

Example: see airport list